createdAt,value
2023-05-15T05:27:07.230Z,1.15
2023-05-15T05:28:07.193Z,0.82
2023-05-15T05:29:07.072Z,1.06
2023-05-15T05:30:07.133Z,1.15
2023-05-15T05:31:07.014Z,0.92
2023-05-15T05:32:06.847Z,1.09
2023-05-15T05:33:06.712Z,1.23
2023-05-15T05:34:06.523Z,1.29
2023-05-15T05:35:06.367Z,1.18
2023-05-15T05:36:06.207Z,0.91
2023-05-15T05:37:06.047Z,1.97
2023-05-15T05:38:05.891Z,2.74
2023-05-15T05:39:05.723Z,1.80
2023-05-15T05:40:05.568Z,1.78
2023-05-15T05:41:05.392Z,1.58
2023-05-15T05:42:05.236Z,1.59
2023-05-15T05:43:05.098Z,1.35
2023-05-15T05:44:04.911Z,1.49
2023-05-15T05:45:04.719Z,1.10
2023-05-15T05:46:04.557Z,1.13
2023-05-15T05:47:04.458Z,1.28
2023-05-15T05:48:04.245Z,1.22
2023-05-15T05:49:04.072Z,1.43
2023-05-15T05:50:03.890Z,1.10
2023-05-15T05:51:03.718Z,1.20
2023-05-15T05:52:03.544Z,0.93
2023-05-15T05:53:03.385Z,1.17
2023-05-15T05:54:03.208Z,1.25
2023-05-15T05:55:03.037Z,1.24
2023-05-15T05:56:02.857Z,1.41
2023-05-15T05:57:02.684Z,2.02
2023-05-15T05:58:04.803Z,3.09
2023-05-15T05:59:03.324Z,3.77
2023-05-15T06:00:02.162Z,3.37
2023-05-15T06:01:01.998Z,2.74
2023-05-15T06:02:01.884Z,2.83
2023-05-15T06:03:01.718Z,2.35
2023-05-15T06:04:01.544Z,2.52
2023-05-15T06:05:01.312Z,2.34
2023-05-15T06:06:01.138Z,1.78
2023-05-15T06:07:00.976Z,2.12
2023-05-15T06:08:00.799Z,1.89
2023-05-15T06:09:00.628Z,1.79
2023-05-15T06:10:00.485Z,1.84
2023-05-15T06:11:00.278Z,1.58
2023-05-15T06:12:00.125Z,1.45
2023-05-15T06:12:59.927Z,1.44
2023-05-15T06:13:59.777Z,1.72
2023-05-15T06:14:59.584Z,1.52
2023-05-15T06:15:59.415Z,1.54
2023-05-15T06:16:59.243Z,1.38
2023-05-15T06:17:59.065Z,1.47
2023-05-15T06:18:58.922Z,1.30
2023-05-15T06:19:58.700Z,1.52
2023-05-15T06:20:58.523Z,1.27
2023-05-15T06:21:58.341Z,1.78
2023-05-15T06:22:58.154Z,1.46
2023-05-15T06:23:57.968Z,1.38
2023-05-15T06:24:57.832Z,1.60
2023-05-15T06:25:57.954Z,1.10
2023-05-15T06:26:57.566Z,1.20
2023-05-15T06:27:57.456Z,1.11
2023-05-15T06:28:57.315Z,1.31
2023-05-15T06:29:57.944Z,1.34
2023-05-15T06:30:57.209Z,1.47
2023-05-15T06:31:56.930Z,1.31
2023-05-15T06:32:56.796Z,1.41
2023-05-15T06:33:56.670Z,1.16
2023-05-15T06:34:56.525Z,1.33
2023-05-15T06:35:56.380Z,1.44
2023-05-15T06:36:56.239Z,1.22
2023-05-15T06:37:57.777Z,1.05
2023-05-15T06:38:55.966Z,1.21
2023-05-15T06:39:55.806Z,1.78
2023-05-15T06:40:55.663Z,1.08
2023-05-15T06:41:55.501Z,1.46
2023-05-15T06:42:55.356Z,0.96
2023-05-15T06:43:55.232Z,1.17
2023-05-15T06:44:55.062Z,1.40
2023-05-15T06:45:54.948Z,1.23
2023-05-15T06:46:54.923Z,1.48
2023-05-15T06:47:54.616Z,1.06
2023-05-15T06:48:54.440Z,1.16
2023-05-15T06:49:54.276Z,1.08
2023-05-15T06:50:54.147Z,1.10
2023-05-15T06:51:53.980Z,1.19
2023-05-15T06:52:53.819Z,1.43
2023-05-15T06:53:53.662Z,1.24
2023-05-15T06:54:53.511Z,1.14
2023-05-15T06:55:53.372Z,1.36
2023-05-15T06:56:53.201Z,1.34
2023-05-15T06:57:53.051Z,1.35
2023-05-15T06:58:52.902Z,1.33
2023-05-15T06:59:52.743Z,1.23
2023-05-15T07:00:54.247Z,1.03
2023-05-15T07:01:52.532Z,1.36
2023-05-15T07:02:52.388Z,1.32
2023-05-15T07:03:52.042Z,1.22
2023-05-15T07:04:51.902Z,1.33
2023-05-15T07:05:51.675Z,1.53
2023-05-15T07:06:51.484Z,1.37
2023-05-15T07:07:51.305Z,1.31
2023-05-15T07:08:51.139Z,1.57
2023-05-15T07:09:50.938Z,1.23
2023-05-15T07:10:50.745Z,1.10
2023-05-15T07:11:50.563Z,1.06
2023-05-15T07:12:50.391Z,1.07
2023-05-15T07:13:50.749Z,1.20
2023-05-15T07:14:50.142Z,1.32
2023-05-15T07:15:49.828Z,1.25
2023-05-15T07:16:49.664Z,1.47
2023-05-15T07:17:49.578Z,1.26
2023-05-15T07:18:49.361Z,1.14
2023-05-15T07:19:49.083Z,1.15
2023-05-15T07:20:48.896Z,1.16
2023-05-15T07:21:48.737Z,1.26
2023-05-15T07:22:56.278Z,1.12
2023-05-15T07:23:49.360Z,1.45
2023-05-15T07:24:48.185Z,1.33
2023-05-15T07:25:48.005Z,0.97
2023-05-15T07:26:58.243Z,0.73
2023-05-15T07:27:48.653Z,0.99
2023-05-15T07:28:47.460Z,1.21
2023-05-15T07:29:47.311Z,1.15
2023-05-15T07:30:47.119Z,1.21
2023-05-15T07:31:46.982Z,0.86
2023-05-15T07:32:46.861Z,1.30
2023-05-15T07:33:46.561Z,1.34
2023-05-15T07:34:46.398Z,1.32
2023-05-15T07:35:46.193Z,1.50
2023-05-15T07:36:46.057Z,1.45
2023-05-15T07:37:45.874Z,1.05
2023-05-15T07:38:45.734Z,1.14
2023-05-15T07:39:45.670Z,1.15
2023-05-15T07:40:45.481Z,1.40
2023-05-15T07:41:45.371Z,1.27
2023-05-15T07:42:45.273Z,1.02
2023-05-15T07:43:45.107Z,1.08
2023-05-15T07:44:47.183Z,1.06
2023-05-15T07:45:44.872Z,1.15
2023-05-15T07:46:44.628Z,0.88
2023-05-15T07:47:44.436Z,1.11
2023-05-15T07:48:44.241Z,1.03
2023-05-15T07:49:44.050Z,1.08
2023-05-15T07:50:43.864Z,1.60
2023-05-15T07:51:43.762Z,1.07
2023-05-15T07:52:43.486Z,1.18
2023-05-15T07:53:43.291Z,1.23
2023-05-15T07:54:43.121Z,1.02
2023-05-15T07:55:42.916Z,1.54
2023-05-15T07:56:42.733Z,0.84
2023-05-15T07:57:42.619Z,0.86
2023-05-15T07:58:42.375Z,0.91
2023-05-15T07:59:42.184Z,0.98
2023-05-15T08:00:42.016Z,1.26
2023-05-15T08:01:41.799Z,0.81
2023-05-15T08:02:41.711Z,1.07
2023-05-15T08:03:41.541Z,0.85
2023-05-15T08:04:41.379Z,1.23
2023-05-15T08:05:41.058Z,1.15
2023-05-15T08:06:42.042Z,1.17
2023-05-15T08:07:40.707Z,1.14
2023-05-15T08:08:41.399Z,1.04
2023-05-15T08:09:40.341Z,1.25
2023-05-15T08:10:40.167Z,1.09
2023-05-15T08:11:39.986Z,0.91
2023-05-15T08:12:39.809Z,1.13
2023-05-15T08:13:39.616Z,0.90
2023-05-15T08:14:39.567Z,1.11
2023-05-15T08:15:39.386Z,1.17
2023-05-15T08:16:39.219Z,1.18
2023-05-15T08:17:39.092Z,1.08
2023-05-15T08:18:39.031Z,1.01
2023-05-15T08:19:39.483Z,1.29
2023-05-15T08:20:38.696Z,1.08
2023-05-15T08:21:38.476Z,1.24
2023-05-15T08:22:38.331Z,1.46
2023-05-15T08:23:38.156Z,1.20
2023-05-15T08:24:38.004Z,1.64
2023-05-15T08:25:37.855Z,1.45
2023-05-15T08:26:37.690Z,1.03
2023-05-15T08:27:38.403Z,1.27
2023-05-15T08:28:37.464Z,1.21
2023-05-15T08:29:39.321Z,0.96
2023-05-15T08:30:37.057Z,1.24
2023-05-15T08:31:37.549Z,1.31
2023-05-15T08:32:36.790Z,1.35
2023-05-15T08:33:36.720Z,1.09
2023-05-15T08:34:36.448Z,1.11
2023-05-15T08:35:36.333Z,1.28
2023-05-15T08:36:37.696Z,1.34
2023-05-15T08:37:36.014Z,1.17
2023-05-15T08:38:35.854Z,1.27
2023-05-15T08:39:35.703Z,1.11
2023-05-15T08:40:39.563Z,1.25
2023-05-15T08:42:35.181Z,1.20
2023-05-15T08:43:34.988Z,1.15
2023-05-15T08:44:34.793Z,1.58
2023-05-15T08:45:35.409Z,1.12
2023-05-15T08:46:34.434Z,1.05
2023-05-15T08:47:34.271Z,1.30
2023-05-15T08:48:34.075Z,1.26
2023-05-15T08:49:34.484Z,0.99
2023-05-15T08:50:33.667Z,1.41
2023-05-15T08:51:33.471Z,1.22
2023-05-15T08:52:33.297Z,1.23
2023-05-15T08:53:33.115Z,1.37
2023-05-15T08:54:32.935Z,0.91
2023-05-15T08:55:32.790Z,1.22
2023-05-15T08:56:32.573Z,1.06
2023-05-15T08:57:32.381Z,0.96
2023-05-15T08:58:32.228Z,1.19
2023-05-15T08:59:32.039Z,1.12
2023-05-15T09:00:31.860Z,1.00
2023-05-15T09:01:31.760Z,1.07
2023-05-15T09:02:31.563Z,1.07
2023-05-15T09:03:31.442Z,0.96
2023-05-15T09:04:31.193Z,1.40
2023-05-15T09:05:30.936Z,1.20
2023-05-15T09:06:30.766Z,1.04
2023-05-15T09:07:30.585Z,1.22
2023-05-15T09:08:30.416Z,0.99
2023-05-15T09:09:30.227Z,0.80
2023-05-15T09:10:30.040Z,1.08
2023-05-15T09:11:29.868Z,1.09
2023-05-15T09:12:29.688Z,1.12
2023-05-15T09:13:29.511Z,1.16
2023-05-15T09:14:29.300Z,1.16
2023-05-15T09:15:29.131Z,0.99
2023-05-15T09:16:28.990Z,0.92
2023-05-15T09:17:28.807Z,1.02
2023-05-15T09:18:28.701Z,1.20
2023-05-15T09:19:28.550Z,1.06
2023-05-15T09:20:28.415Z,1.15
2023-05-15T09:21:29.039Z,1.00
2023-05-15T09:22:28.180Z,1.25
2023-05-15T09:23:28.032Z,1.20
2023-05-15T09:24:27.832Z,1.31
2023-05-15T09:25:28.500Z,1.24
2023-05-15T09:26:27.590Z,1.38
2023-05-15T09:27:28.308Z,1.50
2023-05-15T09:28:27.233Z,1.44
2023-05-15T09:29:26.934Z,1.28
2023-05-15T09:30:26.752Z,1.24
2023-05-15T09:31:26.608Z,1.35
2023-05-15T09:32:26.449Z,1.49
2023-05-15T09:33:26.262Z,1.41
2023-05-15T09:34:26.137Z,2.11
2023-05-15T09:35:28.387Z,1.70
2023-05-15T09:36:26.092Z,1.50
2023-05-15T09:37:25.971Z,1.69
2023-05-15T09:38:25.846Z,2.02
2023-05-15T09:39:25.700Z,1.35
2023-05-15T09:40:25.551Z,1.66
2023-05-15T09:41:25.409Z,1.83
2023-05-15T09:42:25.283Z,2.22
2023-05-15T09:43:25.067Z,1.96
2023-05-15T09:44:24.894Z,1.78
2023-05-15T09:45:24.916Z,1.52
2023-05-15T09:46:24.653Z,1.74
2023-05-15T09:47:24.593Z,1.71
2023-05-15T09:48:24.234Z,1.87
2023-05-15T09:49:25.008Z,2.02
2023-05-15T09:50:23.820Z,1.76
2023-05-15T09:51:23.621Z,1.57
2023-05-15T09:52:23.419Z,1.75
2023-05-15T09:53:23.225Z,1.72
2023-05-15T09:54:23.040Z,1.95
2023-05-15T09:55:23.007Z,2.12
2023-05-15T09:56:22.703Z,1.54
2023-05-15T09:57:22.510Z,1.64
2023-05-15T09:58:22.389Z,1.49
2023-05-15T09:59:22.241Z,1.85
2023-05-15T10:00:22.074Z,2.06
2023-05-15T10:01:21.961Z,1.60
2023-05-15T10:02:21.771Z,1.60
2023-05-15T10:03:21.634Z,1.34
2023-05-15T10:04:21.480Z,1.93
2023-05-15T10:05:28.654Z,1.70
2023-05-15T10:06:22.102Z,2.10
2023-05-15T10:07:20.901Z,1.59
2023-05-15T10:08:20.713Z,1.94
2023-05-15T10:09:20.510Z,1.82
2023-05-15T10:10:20.307Z,1.94
2023-05-15T10:11:20.136Z,1.80
2023-05-15T10:12:19.918Z,2.05
2023-05-15T10:13:19.720Z,1.67
2023-05-15T10:14:19.525Z,1.93
2023-05-15T10:15:19.323Z,1.40
2023-05-15T10:16:19.184Z,1.56
2023-05-15T10:17:18.973Z,1.93
2023-05-15T10:18:18.803Z,1.88
2023-05-15T10:19:18.686Z,1.70
2023-05-15T10:20:18.534Z,1.29
2023-05-15T10:21:18.476Z,1.96
2023-05-15T10:22:18.280Z,1.76
2023-05-15T10:23:18.148Z,1.47
2023-05-15T10:24:18.003Z,1.52
2023-05-15T10:25:17.838Z,1.61
2023-05-15T10:26:17.660Z,1.82
2023-05-15T10:27:17.488Z,1.43
2023-05-15T10:28:17.329Z,1.79
2023-05-15T10:29:17.260Z,1.71
2023-05-15T10:30:17.022Z,1.33
2023-05-15T10:31:16.839Z,1.42
2023-05-15T10:32:16.649Z,1.51
2023-05-15T10:33:17.325Z,1.41
2023-05-15T10:34:16.992Z,2.14
2023-05-15T10:35:16.151Z,1.31
2023-05-15T10:36:15.983Z,1.46
2023-05-15T10:37:15.819Z,1.51
2023-05-15T10:38:15.659Z,1.31
2023-05-15T10:39:15.454Z,1.57
2023-05-15T10:40:15.316Z,1.56
2023-05-15T10:41:17.139Z,1.35
2023-05-15T10:42:14.898Z,1.55
2023-05-15T10:43:14.716Z,1.85
2023-05-15T10:44:14.523Z,1.33
2023-05-15T10:45:14.346Z,1.41
2023-05-15T10:46:14.151Z,1.80
2023-05-15T10:47:14.093Z,1.54
2023-05-15T10:48:13.850Z,1.77
2023-05-15T10:49:13.560Z,1.62
2023-05-15T10:50:13.382Z,1.45
2023-05-15T10:51:13.173Z,1.81
2023-05-15T10:52:12.980Z,1.70
2023-05-15T10:53:12.813Z,1.34
2023-05-15T10:54:12.625Z,1.62
2023-05-15T10:55:12.436Z,1.62
2023-05-15T10:56:12.285Z,1.23
2023-05-15T10:57:12.048Z,1.59
2023-05-15T10:58:11.856Z,1.17
2023-05-15T10:59:11.705Z,1.31
2023-05-15T11:00:11.487Z,1.54
2023-05-15T11:01:11.398Z,1.23
2023-05-15T11:02:11.103Z,1.85
2023-05-15T11:03:10.942Z,1.62
2023-05-15T11:04:10.814Z,1.53
2023-05-15T11:05:10.542Z,1.67
2023-05-15T11:06:10.350Z,1.38
2023-05-15T11:07:10.172Z,1.72
2023-05-15T11:08:09.979Z,1.43
2023-05-15T11:09:09.797Z,1.27
2023-05-15T11:10:09.604Z,1.56
2023-05-15T11:11:09.418Z,1.25
2023-05-15T11:12:09.245Z,1.27
2023-05-15T11:13:09.081Z,1.75
2023-05-15T11:14:08.878Z,1.42
2023-05-15T11:15:08.711Z,1.39
2023-05-15T11:16:08.504Z,1.49
2023-05-15T11:17:08.441Z,1.53
2023-05-15T11:18:08.179Z,1.19
2023-05-15T11:19:07.998Z,1.31
2023-05-15T11:20:07.784Z,1.76
2023-05-15T11:21:07.623Z,1.40
2023-05-15T11:22:07.400Z,1.56
2023-05-15T11:23:07.221Z,1.65
2023-05-15T11:24:07.054Z,1.31
2023-05-15T11:25:06.851Z,1.49
2023-05-15T11:26:06.668Z,1.51
2023-05-15T11:27:06.485Z,1.38
2023-05-15T11:28:06.313Z,1.00
2023-05-15T11:29:06.122Z,1.19
2023-05-15T11:30:05.962Z,1.16
2023-05-15T11:31:05.829Z,1.35
2023-05-15T11:32:05.564Z,1.20
2023-05-15T11:33:05.445Z,1.38
2023-05-15T11:34:05.202Z,1.62
2023-05-15T11:35:05.044Z,1.50
2023-05-15T11:36:04.839Z,1.33
2023-05-15T11:37:04.676Z,1.29
2023-05-15T11:38:04.472Z,1.14
2023-05-15T11:39:04.291Z,1.17
2023-05-15T11:40:04.107Z,1.70
2023-05-15T11:41:03.900Z,1.15
2023-05-15T11:42:03.718Z,1.38
2023-05-15T11:43:03.548Z,1.37
2023-05-15T11:44:03.367Z,1.20
2023-05-15T11:45:03.179Z,1.48
2023-05-15T11:46:03.057Z,1.16
2023-05-15T11:47:02.908Z,1.40
2023-05-15T11:48:02.782Z,1.51
2023-05-15T11:49:02.443Z,1.35
2023-05-15T11:50:02.265Z,1.51
2023-05-15T11:51:02.091Z,1.18
2023-05-15T11:52:01.871Z,1.26
2023-05-15T11:53:01.674Z,1.36
2023-05-15T11:54:01.494Z,1.70
2023-05-15T11:55:01.302Z,1.22
2023-05-15T11:56:01.110Z,0.99
2023-05-15T11:57:00.941Z,1.11
2023-05-15T11:58:00.767Z,1.05
2023-05-15T11:59:00.659Z,1.15
2023-05-15T12:00:00.400Z,1.42
2023-05-15T12:01:00.193Z,1.49
2023-05-15T12:02:00.020Z,1.29
2023-05-15T12:02:59.971Z,1.05
2023-05-15T12:03:59.826Z,1.22
2023-05-15T12:04:59.500Z,1.07
2023-05-15T12:06:00.310Z,2.66
2023-05-15T12:07:00.506Z,1.27
2023-05-15T12:07:58.902Z,1.27
2023-05-15T12:08:58.717Z,1.46
2023-05-15T12:09:58.528Z,1.41
2023-05-15T12:10:58.355Z,1.58
2023-05-15T12:11:58.157Z,1.31
2023-05-15T12:12:57.969Z,1.53
2023-05-15T12:13:57.794Z,1.21
2023-05-15T12:14:57.613Z,1.26
2023-05-15T12:15:57.422Z,1.14
2023-05-15T12:16:57.255Z,1.19
2023-05-15T12:17:57.070Z,1.57
2023-05-15T12:18:56.897Z,1.33
2023-05-15T12:19:56.675Z,1.22
2023-05-15T12:20:56.492Z,1.21
2023-05-15T12:21:56.400Z,1.83
2023-05-15T12:22:56.126Z,1.10
2023-05-15T12:24:55.753Z,1.26
2023-05-15T12:25:55.559Z,1.38
2023-05-15T12:26:57.343Z,1.12
2023-05-15T12:27:55.192Z,1.15
2023-05-15T12:28:54.998Z,1.38
2023-05-15T12:29:54.826Z,1.09
2023-05-15T12:30:54.646Z,1.14
2023-05-15T12:31:54.525Z,0.94
2023-05-15T12:32:54.278Z,1.25
2023-05-15T12:33:54.081Z,1.02
2023-05-15T12:34:53.913Z,1.17
2023-05-15T12:35:53.720Z,1.12
2023-05-15T12:36:53.539Z,1.55
2023-05-15T12:37:53.369Z,1.04
2023-05-15T12:38:53.192Z,1.12
2023-05-15T12:39:53.055Z,1.47
2023-05-15T12:40:52.865Z,1.16
2023-05-15T12:41:52.699Z,1.09
2023-05-15T12:42:52.539Z,1.16
2023-05-15T12:43:52.372Z,1.36
2023-05-15T12:44:52.233Z,1.71
2023-05-15T12:45:52.125Z,1.22
2023-05-15T12:46:51.897Z,0.93
2023-05-15T12:47:51.748Z,1.27
2023-05-15T12:48:51.579Z,0.99
2023-05-15T12:49:51.408Z,1.15
2023-05-15T12:50:51.235Z,1.16
2023-05-15T12:51:51.061Z,1.59
2023-05-15T12:52:50.902Z,1.34
2023-05-15T12:53:50.745Z,1.52
2023-05-15T12:54:50.577Z,1.14
2023-05-15T12:55:50.406Z,1.48
2023-05-15T12:56:50.241Z,1.15
2023-05-15T12:57:50.091Z,1.04
2023-05-15T12:58:49.945Z,1.39
2023-05-15T12:59:49.746Z,1.51
2023-05-15T13:00:49.584Z,1.18
2023-05-15T13:01:49.495Z,1.58
2023-05-15T13:02:49.332Z,1.24
2023-05-15T13:03:49.162Z,1.26
2023-05-15T13:04:48.927Z,1.21
2023-05-15T13:05:48.741Z,1.50
2023-05-15T13:06:48.591Z,1.29
2023-05-15T13:07:48.410Z,1.11
2023-05-15T13:08:48.315Z,1.32
2023-05-15T13:09:48.111Z,1.27
2023-05-15T13:10:47.950Z,1.21
2023-05-15T13:11:47.777Z,1.15
2023-05-15T13:12:47.616Z,1.39
2023-05-15T13:13:47.448Z,1.23
2023-05-15T13:14:47.278Z,1.28
2023-05-15T13:15:47.146Z,1.44
2023-05-15T13:16:47.148Z,1.20
2023-05-15T13:17:46.848Z,0.92
2023-05-15T13:18:46.656Z,1.08
2023-05-15T13:19:46.455Z,1.25
2023-05-15T13:20:46.484Z,1.36
2023-05-15T13:21:46.115Z,1.27
2023-05-15T13:22:45.951Z,0.79
2023-05-15T13:23:45.800Z,1.00
2023-05-15T13:24:45.624Z,1.38
2023-05-15T13:25:45.469Z,1.06
2023-05-15T13:26:45.299Z,1.10
2023-05-15T13:27:45.124Z,1.34
2023-05-15T13:28:44.949Z,1.22
2023-05-15T13:29:44.781Z,1.14
2023-05-15T13:30:44.622Z,1.17
2023-05-15T13:31:44.508Z,1.23
2023-05-15T13:32:44.317Z,1.28
2023-05-15T13:33:44.115Z,1.04
2023-05-15T13:34:43.955Z,1.01
2023-05-15T13:35:43.788Z,1.47
2023-05-15T13:36:43.623Z,1.40
2023-05-15T13:37:43.465Z,0.99
2023-05-15T13:38:43.295Z,1.20
2023-05-15T13:39:43.134Z,1.14
2023-05-15T13:40:42.971Z,0.97
2023-05-15T13:41:42.806Z,1.09
2023-05-15T13:42:42.626Z,1.19
2023-05-15T13:43:42.477Z,1.28
2023-05-15T13:44:42.303Z,1.64
2023-05-15T13:45:42.149Z,1.27
2023-05-15T13:46:41.998Z,0.95
2023-05-15T13:47:41.844Z,1.06
2023-05-15T13:48:41.652Z,1.23
2023-05-15T13:49:41.493Z,1.17
2023-05-15T13:50:41.323Z,1.44
2023-05-15T13:51:41.244Z,1.11
2023-05-15T13:52:41.004Z,1.09
2023-05-15T13:53:40.823Z,0.84
2023-05-15T13:54:40.661Z,0.97
2023-05-15T13:55:40.518Z,0.91
2023-05-15T13:56:40.324Z,1.00
2023-05-15T13:57:40.151Z,1.06
2023-05-15T13:58:39.983Z,1.52
2023-05-15T13:59:39.832Z,0.87
2023-05-15T14:00:39.672Z,1.28
2023-05-15T14:01:39.486Z,1.02
2023-05-15T14:02:39.362Z,1.30
2023-05-15T14:03:39.217Z,1.30
2023-05-15T14:04:38.974Z,1.48
2023-05-15T14:05:38.804Z,1.15
2023-05-15T14:06:38.621Z,0.99
2023-05-15T14:07:39.050Z,0.98
2023-05-15T14:08:38.277Z,1.10
2023-05-15T14:09:38.098Z,1.25
2023-05-15T14:10:37.915Z,1.11
2023-05-15T14:11:37.731Z,1.01
2023-05-15T14:12:37.578Z,1.36
2023-05-15T14:13:37.457Z,1.10
2023-05-15T14:14:37.252Z,1.13
2023-05-15T14:15:37.153Z,0.98
2023-05-15T14:16:37.001Z,1.27
2023-05-15T14:17:36.709Z,1.37
2023-05-15T14:18:36.551Z,1.27
2023-05-15T14:19:36.363Z,1.40
2023-05-15T14:20:36.193Z,1.75
2023-05-15T14:21:36.021Z,1.08
2023-05-15T14:22:35.831Z,1.20
2023-05-15T14:23:35.658Z,1.25
2023-05-15T14:24:35.496Z,1.10
2023-05-15T14:25:35.309Z,1.14
2023-05-15T14:26:35.147Z,1.03
2023-05-15T14:27:34.965Z,0.96
2023-05-15T14:28:34.802Z,0.88
2023-05-15T14:29:34.614Z,1.16
2023-05-15T14:30:34.465Z,1.16
2023-05-15T14:31:34.318Z,1.05
2023-05-15T14:32:34.146Z,1.27
2023-05-15T14:33:33.956Z,1.09
2023-05-15T14:34:33.771Z,0.91
2023-05-15T14:35:33.625Z,1.15
2023-05-15T14:36:33.441Z,1.13
2023-05-15T14:37:33.275Z,1.10
2023-05-15T14:38:33.110Z,1.32
2023-05-15T14:39:32.943Z,1.25
2023-05-15T14:40:32.773Z,1.20
2023-05-15T14:41:32.614Z,0.95
2023-05-15T14:42:32.460Z,0.91
2023-05-15T14:43:32.280Z,1.18
2023-05-15T14:44:32.154Z,1.24
2023-05-15T14:45:31.962Z,1.21
2023-05-15T14:46:31.889Z,1.02
2023-05-15T14:47:31.680Z,1.22
2023-05-15T14:48:31.474Z,1.01
2023-05-15T14:49:31.302Z,1.15
2023-05-15T14:50:31.142Z,0.99
2023-05-15T14:51:30.969Z,1.06
2023-05-15T14:52:30.806Z,1.20
2023-05-15T14:53:30.650Z,1.09
2023-05-15T14:54:30.478Z,1.72
2023-05-15T14:55:30.311Z,1.09
2023-05-15T14:56:30.162Z,1.01
2023-05-15T14:57:29.994Z,1.05
2023-05-15T14:58:29.822Z,1.25
2023-05-15T14:59:29.658Z,1.25
2023-05-15T15:00:29.502Z,1.18
2023-05-15T15:01:29.373Z,1.23
2023-05-15T15:02:29.268Z,0.99
2023-05-15T15:03:31.137Z,0.88
2023-05-15T15:04:28.832Z,0.94
2023-05-15T15:05:28.641Z,1.20
2023-05-15T15:06:28.468Z,1.13
2023-05-15T15:07:28.304Z,1.06
2023-05-15T15:08:28.130Z,0.82
2023-05-15T15:09:29.170Z,1.01
2023-05-15T15:10:27.867Z,1.30
2023-05-15T15:11:27.618Z,1.00
2023-05-15T15:12:27.423Z,0.77
2023-05-15T15:13:27.247Z,1.08
2023-05-15T15:14:27.070Z,1.00
2023-05-15T15:15:26.881Z,1.30
2023-05-15T15:16:26.743Z,1.15
2023-05-15T15:17:26.536Z,1.10
2023-05-15T15:18:26.360Z,1.08
2023-05-15T15:19:26.199Z,1.34
2023-05-15T15:20:26.283Z,1.26
2023-05-15T15:21:25.821Z,1.03
2023-05-15T15:22:25.644Z,0.73
2023-05-15T15:23:25.459Z,1.00
2023-05-15T15:24:25.276Z,0.75
2023-05-15T15:25:25.109Z,0.99
2023-05-15T15:26:24.920Z,1.14
2023-05-15T15:27:24.742Z,1.19
2023-05-15T15:28:24.561Z,1.08
2023-05-15T15:29:24.389Z,1.19
2023-05-15T15:30:24.362Z,0.93
2023-05-15T15:31:24.069Z,1.02
2023-05-15T15:32:23.872Z,0.98
2023-05-15T15:33:23.678Z,0.84
2023-05-15T15:34:23.517Z,0.88
2023-05-15T15:35:23.342Z,0.88
2023-05-15T15:36:23.159Z,1.05
2023-05-15T15:37:22.984Z,0.88
2023-05-15T15:38:22.798Z,0.85
2023-05-15T15:39:22.638Z,1.23
2023-05-15T15:40:22.452Z,0.90
2023-05-15T15:41:22.292Z,1.10
2023-05-15T15:42:22.091Z,1.26
2023-05-15T15:43:21.909Z,1.07
2023-05-15T15:44:21.766Z,1.07
2023-05-15T15:45:21.553Z,0.99
2023-05-15T15:46:21.381Z,1.25
2023-05-15T15:47:21.207Z,0.92
2023-05-15T15:48:21.006Z,1.20
2023-05-15T15:49:20.913Z,0.92
2023-05-15T15:50:20.630Z,1.21
2023-05-15T15:51:20.441Z,0.94
2023-05-15T15:52:20.269Z,1.25
2023-05-15T15:53:20.094Z,1.26
2023-05-15T15:54:19.909Z,1.21
2023-05-15T15:55:19.735Z,1.01
2023-05-15T15:56:19.541Z,0.81
2023-05-15T15:57:19.372Z,1.18
2023-05-15T15:58:19.186Z,1.06
2023-05-15T15:59:19.013Z,0.86
2023-05-15T16:00:18.839Z,1.17
2023-05-15T16:01:18.723Z,0.99
2023-05-15T16:02:18.544Z,0.89
2023-05-15T16:03:18.493Z,1.10
2023-05-15T16:04:18.283Z,1.10
2023-05-15T16:05:18.088Z,1.00
2023-05-15T16:06:17.916Z,1.15
2023-05-15T16:07:17.776Z,1.03
2023-05-15T16:08:17.615Z,1.02
2023-05-15T16:09:17.457Z,0.90
2023-05-15T16:10:17.314Z,1.11
2023-05-15T16:11:17.153Z,0.93
2023-05-15T16:12:17.007Z,0.98
2023-05-15T16:13:16.863Z,1.28
2023-05-15T16:14:16.716Z,0.94
2023-05-15T16:15:22.573Z,0.81
2023-05-15T16:16:17.410Z,1.19
2023-05-15T16:17:16.250Z,0.97
2023-05-15T16:18:16.047Z,1.17
2023-05-15T16:19:15.930Z,1.18
2023-05-15T16:20:15.708Z,1.02
2023-05-15T16:21:15.539Z,1.06
2023-05-15T16:22:15.353Z,1.01
2023-05-15T16:23:15.192Z,1.25
2023-05-15T16:24:14.996Z,0.97
2023-05-15T16:25:14.826Z,1.00
2023-05-15T16:26:14.638Z,1.12
2023-05-15T16:27:14.464Z,1.00
2023-05-15T16:28:14.274Z,0.93
2023-05-15T16:29:14.103Z,1.04
2023-05-15T16:30:13.936Z,0.95
2023-05-15T16:31:13.766Z,1.11
2023-05-15T16:32:13.593Z,1.01
2023-05-15T16:33:13.464Z,1.04
2023-05-15T16:34:13.323Z,0.98
2023-05-15T16:35:13.184Z,1.04
2023-05-15T16:36:13.040Z,0.77
2023-05-15T16:37:12.908Z,1.21
2023-05-15T16:38:12.767Z,0.76
2023-05-15T16:39:12.630Z,0.90
2023-05-15T16:40:12.500Z,0.90
2023-05-15T16:41:12.348Z,1.16
2023-05-15T16:42:12.222Z,0.97
2023-05-15T16:43:12.083Z,1.04
2023-05-15T16:44:11.966Z,0.92
2023-05-15T16:45:11.831Z,0.94
2023-05-15T16:46:11.764Z,1.27
2023-05-15T16:47:11.562Z,0.93
2023-05-15T16:48:11.483Z,0.85
2023-05-15T16:49:11.354Z,0.89
2023-05-15T16:50:11.171Z,1.13
2023-05-15T16:51:11.040Z,1.14
2023-05-15T16:52:10.914Z,0.78
2023-05-15T16:53:10.847Z,1.03
2023-05-15T16:54:10.653Z,1.24
2023-05-15T16:55:10.541Z,0.89
2023-05-15T16:56:10.398Z,1.00
2023-05-15T16:57:10.277Z,1.16
2023-05-15T16:58:10.175Z,1.00
2023-05-15T16:59:10.042Z,0.93
2023-05-15T17:00:09.898Z,1.04
2023-05-15T17:01:09.764Z,1.11
2023-05-15T17:02:09.785Z,1.02
2023-05-15T17:03:09.614Z,0.99
2023-05-15T17:04:09.551Z,0.87
2023-05-15T17:05:09.266Z,0.85
2023-05-15T17:06:09.132Z,1.11
2023-05-15T17:07:09.012Z,1.08
2023-05-15T17:08:08.880Z,0.94
2023-05-15T17:09:08.751Z,1.05
2023-05-15T17:10:08.635Z,0.86
2023-05-15T17:11:08.512Z,1.10
2023-05-15T17:12:08.395Z,1.10
2023-05-15T17:13:08.277Z,1.05
2023-05-15T17:14:08.152Z,1.04
2023-05-15T17:15:08.040Z,0.87
2023-05-15T17:16:07.935Z,0.94
2023-05-15T17:17:07.794Z,0.96
2023-05-15T17:18:08.713Z,0.88
2023-05-15T17:19:07.593Z,1.01
2023-05-15T17:20:07.463Z,0.81
2023-05-15T17:21:07.334Z,1.07
2023-05-15T17:22:07.220Z,1.26
2023-05-15T17:23:07.097Z,1.06
2023-05-15T17:24:06.988Z,1.03
2023-05-15T17:25:06.877Z,0.91
2023-05-15T17:26:06.757Z,1.14
2023-05-15T17:27:06.638Z,0.87
2023-05-15T17:28:06.532Z,0.94
2023-05-15T17:29:06.420Z,1.12
2023-05-15T17:30:06.317Z,1.05
2023-05-15T17:31:06.202Z,1.04
2023-05-15T17:32:06.122Z,1.02
2023-05-15T17:33:06.013Z,1.14
2023-05-15T17:34:05.889Z,1.24
2023-05-15T17:35:05.792Z,1.02
2023-05-15T17:36:05.670Z,0.88
2023-05-15T17:37:05.557Z,1.14
2023-05-15T17:38:05.443Z,1.40
2023-05-15T17:39:05.359Z,0.99
2023-05-15T17:40:05.281Z,1.03
2023-05-15T17:41:05.104Z,1.06
2023-05-15T17:42:04.983Z,0.90
2023-05-15T17:43:04.904Z,1.19
2023-05-15T17:44:04.784Z,1.08
2023-05-15T17:45:04.676Z,0.95
2023-05-15T17:46:04.654Z,1.18
2023-05-15T17:47:04.468Z,1.14
2023-05-15T17:48:04.360Z,0.85
2023-05-15T17:49:04.224Z,1.14
2023-05-15T17:50:04.131Z,1.13
2023-05-15T17:51:04.010Z,0.95
2023-05-15T17:52:03.960Z,1.08
2023-05-15T17:53:03.795Z,1.01
2023-05-15T17:54:03.687Z,1.84
2023-05-15T17:55:03.600Z,0.91
2023-05-15T17:56:03.501Z,1.20
2023-05-15T17:57:03.384Z,1.36
2023-05-15T17:58:03.278Z,0.92
2023-05-15T17:59:03.176Z,1.02
2023-05-15T18:00:03.075Z,1.00
2023-05-15T18:01:02.972Z,0.96
2023-05-15T18:02:02.985Z,0.76
2023-05-15T18:03:02.769Z,1.16
2023-05-15T18:04:02.687Z,1.01
2023-05-15T18:05:02.578Z,0.89
2023-05-15T18:06:02.423Z,1.11
2023-05-15T18:07:02.327Z,0.91
2023-05-15T18:08:02.222Z,0.88
2023-05-15T18:09:02.125Z,1.27
2023-05-15T18:10:02.017Z,1.61
2023-05-15T18:11:08.538Z,1.18
2023-05-15T18:12:02.724Z,1.13
2023-05-15T18:13:01.613Z,0.96
2023-05-15T18:14:01.391Z,1.07
2023-05-15T18:15:01.276Z,0.94
2023-05-15T18:16:01.062Z,0.95
2023-05-15T18:17:00.875Z,1.10
2023-05-15T18:18:00.819Z,1.11
2023-05-15T18:19:00.580Z,1.19
2023-05-15T18:20:00.477Z,1.03
2023-05-15T18:21:00.362Z,1.21
2023-05-15T18:22:00.247Z,0.83
2023-05-15T18:23:00.129Z,1.07
2023-05-15T18:24:00.034Z,1.19
2023-05-15T18:24:59.952Z,1.07
2023-05-15T18:25:59.822Z,1.15
2023-05-15T18:26:59.705Z,0.99
2023-05-15T18:27:59.596Z,0.98
2023-05-15T18:28:59.520Z,0.99
2023-05-15T18:29:59.435Z,1.13
2023-05-15T18:31:00.193Z,0.90
2023-05-15T18:31:59.304Z,1.01
2023-05-15T18:32:59.139Z,1.34
2023-05-15T18:33:59.015Z,1.00
2023-05-15T18:34:58.934Z,1.06
2023-05-15T18:35:58.810Z,1.16
2023-05-15T18:36:58.694Z,1.12
2023-05-15T18:37:58.594Z,1.08
2023-05-15T18:38:58.493Z,1.07
2023-05-15T18:39:58.386Z,1.17
2023-05-15T18:40:58.261Z,0.95
2023-05-15T18:41:58.180Z,1.25
2023-05-15T18:42:58.085Z,1.25
2023-05-15T18:43:57.963Z,0.91
2023-05-15T18:44:57.864Z,1.08